sensor_id;sensor_type;location;lat;lon;timestamp;temperature;humidity
61912;DHT22;49973;52.084;5.412;2023-12-20T00:01:56;6.60;99.90
61912;DHT22;49973;52.084;5.412;2023-12-20T00:04:25;6.60;99.90
61912;DHT22;49973;52.084;5.412;2023-12-20T00:06:53;6.50;99.90
61912;DHT22;49973;52.084;5.412;2023-12-20T00:09:23;6.50;99.90
61912;DHT22;49973;52.084;5.412;2023-12-20T00:11:52;6.40;99.90
61912;DHT22;49973;52.084;5.412;2023-12-20T00:14:21;6.40;99.90
61912;DHT22;49973;52.084;5.412;2023-12-20T00:16:49;6.30;99.90
61912;DHT22;49973;52.084;5.412;2023-12-20T00:19:18;6.30;99.90
61912;DHT22;49973;52.084;5.412;2023-12-20T00:21:47;6.20;99.90
61912;DHT22;49973;52.084;5.412;2023-12-20T00:24:16;6.20;99.90
61912;DHT22;49973;52.084;5.412;2023-12-20T00:26:46;6.30;99.90
61912;DHT22;49973;52.084;5.412;2023-12-20T00:29:15;6.10;99.90
61912;DHT22;49973;52.084;5.412;2023-12-20T00:31:43;6.10;99.90
61912;DHT22;49973;52.084;5.412;2023-12-20T00:34:12;6.00;99.90
61912;DHT22;49973;52.084;5.412;2023-12-20T00:36:41;6.00;99.90
61912;DHT22;49973;52.084;5.412;2023-12-20T00:39:09;5.90;99.90
61912;DHT22;49973;52.084;5.412;2023-12-20T00:41:38;5.80;99.90
61912;DHT22;49973;52.084;5.412;2023-12-20T00:44:08;5.90;99.90
61912;DHT22;49973;52.084;5.412;2023-12-20T00:46:37;5.80;99.90
61912;DHT22;49973;52.084;5.412;2023-12-20T00:49:05;6.00;99.90
61912;DHT22;49973;52.084;5.412;2023-12-20T00:51:34;5.90;99.90
61912;DHT22;49973;52.084;5.412;2023-12-20T00:54:03;5.80;99.90
61912;DHT22;49973;52.084;5.412;2023-12-20T00:56:31;5.80;99.90
61912;DHT22;49973;52.084;5.412;2023-12-20T00:59:00;5.80;99.90
61912;DHT22;49973;52.084;5.412;2023-12-20T01:01:30;5.70;99.90
61912;DHT22;49973;52.084;5.412;2023-12-20T01:04:00;5.70;99.90
61912;DHT22;49973;52.084;5.412;2023-12-20T01:06:29;5.70;99.90
61912;DHT22;49973;52.084;5.412;2023-12-20T01:08:57;5.60;99.90
61912;DHT22;49973;52.084;5.412;2023-12-20T01:11:26;5.60;99.90
61912;DHT22;49973;52.084;5.412;2023-12-20T01:13:54;5.60;99.90
61912;DHT22;49973;52.084;5.412;2023-12-20T01:16:23;5.60;99.90
61912;DHT22;49973;52.084;5.412;2023-12-20T01:18:53;5.60;99.90
61912;DHT22;49973;52.084;5.412;2023-12-20T01:21:23;5.50;99.90
61912;DHT22;49973;52.084;5.412;2023-12-20T01:23:52;5.50;99.90
61912;DHT22;49973;52.084;5.412;2023-12-20T01:26:20;5.50;99.90
61912;DHT22;49973;52.084;5.412;2023-12-20T01:28:49;5.50;99.90
61912;DHT22;49973;52.084;5.412;2023-12-20T01:31:17;5.50;99.90
61912;DHT22;49973;52.084;5.412;2023-12-20T01:33:46;5.50;99.90
61912;DHT22;49973;52.084;5.412;2023-12-20T01:36:16;5.50;99.90
61912;DHT22;49973;52.084;5.412;2023-12-20T01:38:45;5.60;99.90
61912;DHT22;49973;52.084;5.412;2023-12-20T01:41:14;5.60;99.90
61912;DHT22;49973;52.084;5.412;2023-12-20T01:43:42;5.60;99.90
61912;DHT22;49973;52.084;5.412;2023-12-20T01:46:19;5.70;99.90
61912;DHT22;49973;52.084;5.412;2023-12-20T01:48:48;5.70;99.90
61912;DHT22;49973;52.084;5.412;2023-12-20T01:51:19;5.70;99.90
61912;DHT22;49973;52.084;5.412;2023-12-20T01:53:48;5.70;99.90
61912;DHT22;49973;52.084;5.412;2023-12-20T01:56:17;5.80;99.90
61912;DHT22;49973;52.084;5.412;2023-12-20T01:58:47;5.80;99.90
61912;DHT22;49973;52.084;5.412;2023-12-20T02:01:16;5.80;99.90
61912;DHT22;49973;52.084;5.412;2023-12-20T02:03:46;5.80;99.90
61912;DHT22;49973;52.084;5.412;2023-12-20T02:06:15;5.80;99.90
61912;DHT22;49973;52.084;5.412;2023-12-20T02:08:45;5.90;99.90
61912;DHT22;49973;52.084;5.412;2023-12-20T02:11:14;5.90;99.90
61912;DHT22;49973;52.084;5.412;2023-12-20T02:13:42;5.90;99.90
61912;DHT22;49973;52.084;5.412;2023-12-20T02:16:11;6.00;99.90
61912;DHT22;49973;52.084;5.412;2023-12-20T02:18:40;6.00;99.90
61912;DHT22;49973;52.084;5.412;2023-12-20T02:21:11;6.00;99.90
61912;DHT22;49973;52.084;5.412;2023-12-20T02:23:41;6.00;99.90
61912;DHT22;49973;52.084;5.412;2023-12-20T02:26:09;6.00;99.90
61912;DHT22;49973;52.084;5.412;2023-12-20T02:28:40;6.10;99.90
61912;DHT22;49973;52.084;5.412;2023-12-20T02:31:09;6.10;99.90
61912;DHT22;49973;52.084;5.412;2023-12-20T02:33:37;6.20;99.90
61912;DHT22;49973;52.084;5.412;2023-12-20T02:36:07;6.20;99.90
61912;DHT22;49973;52.084;5.412;2023-12-20T02:38:35;6.20;99.90
61912;DHT22;49973;52.084;5.412;2023-12-20T02:41:05;6.20;99.90
61912;DHT22;49973;52.084;5.412;2023-12-20T02:43:34;6.20;99.90
61912;DHT22;49973;52.084;5.412;2023-12-20T02:46:03;6.20;99.90
61912;DHT22;49973;52.084;5.412;2023-12-20T02:48:31;6.20;99.90
61912;DHT22;49973;52.084;5.412;2023-12-20T02:51:00;6.20;99.90
61912;DHT22;49973;52.084;5.412;2023-12-20T02:53:29;6.40;99.90
61912;DHT22;49973;52.084;5.412;2023-12-20T02:55:57;6.20;99.90
61912;DHT22;49973;52.084;5.412;2023-12-20T02:58:27;6.30;99.90
61912;DHT22;49973;52.084;5.412;2023-12-20T03:00:56;6.30;99.90
61912;DHT22;49973;52.084;5.412;2023-12-20T03:03:25;6.30;99.90
61912;DHT22;49973;52.084;5.412;2023-12-20T03:05:53;6.30;99.90
61912;DHT22;49973;52.084;5.412;2023-12-20T03:08:22;6.50;99.90
61912;DHT22;49973;52.084;5.412;2023-12-20T03:10:50;6.40;99.90
61912;DHT22;49973;52.084;5.412;2023-12-20T03:13:20;6.40;99.90
61912;DHT22;49973;52.084;5.412;2023-12-20T03:15:50;6.40;99.90
61912;DHT22;49973;52.084;5.412;2023-12-20T03:18:19;6.50;99.90
61912;DHT22;49973;52.084;5.412;2023-12-20T03:20:47;6.40;99.90
61912;DHT22;49973;52.084;5.412;2023-12-20T03:23:18;6.40;99.90
61912;DHT22;49973;52.084;5.412;2023-12-20T03:25:46;6.50;99.90
61912;DHT22;49973;52.084;5.412;2023-12-20T03:28:15;6.50;99.90
61912;DHT22;49973;52.084;5.412;2023-12-20T03:30:43;6.50;99.90
61912;DHT22;49973;52.084;5.412;2023-12-20T03:33:14;6.60;99.90
61912;DHT22;49973;52.084;5.412;2023-12-20T03:35:42;6.60;99.90
61912;DHT22;49973;52.084;5.412;2023-12-20T03:38:11;6.60;99.90
61912;DHT22;49973;52.084;5.412;2023-12-20T03:40:40;6.50;99.90
61912;DHT22;49973;52.084;5.412;2023-12-20T03:43:08;6.50;99.90
61912;DHT22;49973;52.084;5.412;2023-12-20T03:45:37;6.50;99.90
61912;DHT22;49973;52.084;5.412;2023-12-20T03:48:06;6.50;99.90
61912;DHT22;49973;52.084;5.412;2023-12-20T03:50:36;6.50;99.90
61912;DHT22;49973;52.084;5.412;2023-12-20T03:53:04;6.40;99.90
61912;DHT22;49973;52.084;5.412;2023-12-20T03:55:33;6.50;99.90
61912;DHT22;49973;52.084;5.412;2023-12-20T03:58:02;6.50;99.90
61912;DHT22;49973;52.084;5.412;2023-12-20T04:00:31;6.50;99.90
61912;DHT22;49973;52.084;5.412;2023-12-20T04:03:00;6.50;99.90
61912;DHT22;49973;52.084;5.412;2023-12-20T04:05:28;6.50;99.90
61912;DHT22;49973;52.084;5.412;2023-12-20T04:08:00;6.60;99.90
61912;DHT22;49973;52.084;5.412;2023-12-20T04:10:30;6.60;99.90
61912;DHT22;49973;52.084;5.412;2023-12-20T04:12:58;6.60;99.90
61912;DHT22;49973;52.084;5.412;2023-12-20T04:15:27;6.60;99.90
61912;DHT22;49973;52.084;5.412;2023-12-20T04:17:55;6.60;99.90
61912;DHT22;49973;52.084;5.412;2023-12-20T04:20:24;6.60;99.90
61912;DHT22;49973;52.084;5.412;2023-12-20T04:22:52;6.70;99.90
61912;DHT22;49973;52.084;5.412;2023-12-20T04:25:22;6.70;99.90
61912;DHT22;49973;52.084;5.412;2023-12-20T04:27:51;6.70;99.90
61912;DHT22;49973;52.084;5.412;2023-12-20T04:30:20;6.70;99.90
61912;DHT22;49973;52.084;5.412;2023-12-20T04:32:48;6.70;99.90
61912;DHT22;49973;52.084;5.412;2023-12-20T04:35:17;6.80;99.90
61912;DHT22;49973;52.084;5.412;2023-12-20T04:37:45;6.80;99.90
61912;DHT22;49973;52.084;5.412;2023-12-20T04:40:15;6.90;99.90
61912;DHT22;49973;52.084;5.412;2023-12-20T04:42:45;6.90;99.90
61912;DHT22;49973;52.084;5.412;2023-12-20T04:45:13;7.00;99.90
61912;DHT22;49973;52.084;5.412;2023-12-20T04:47:42;7.00;99.90
61912;DHT22;49973;52.084;5.412;2023-12-20T04:50:11;7.00;99.90
61912;DHT22;49973;52.084;5.412;2023-12-20T04:52:41;7.10;99.90
61912;DHT22;49973;52.084;5.412;2023-12-20T04:55:09;7.10;99.90
61912;DHT22;49973;52.084;5.412;2023-12-20T04:57:38;7.10;99.90
61912;DHT22;49973;52.084;5.412;2023-12-20T05:00:09;7.20;99.90
61912;DHT22;49973;52.084;5.412;2023-12-20T05:02:38;7.20;99.90
61912;DHT22;49973;52.084;5.412;2023-12-20T05:05:07;7.20;99.90
61912;DHT22;49973;52.084;5.412;2023-12-20T05:07:36;7.30;99.90
61912;DHT22;49973;52.084;5.412;2023-12-20T05:10:06;7.30;99.90
61912;DHT22;49973;52.084;5.412;2023-12-20T05:12:36;7.30;99.90
61912;DHT22;49973;52.084;5.412;2023-12-20T05:15:07;7.30;99.90
61912;DHT22;49973;52.084;5.412;2023-12-20T05:17:36;7.30;99.90
61912;DHT22;49973;52.084;5.412;2023-12-20T05:20:06;7.40;99.90
61912;DHT22;49973;52.084;5.412;2023-12-20T05:22:35;7.40;99.90
61912;DHT22;49973;52.084;5.412;2023-12-20T05:25:04;7.50;99.90
61912;DHT22;49973;52.084;5.412;2023-12-20T05:27:33;7.40;99.90
61912;DHT22;49973;52.084;5.412;2023-12-20T05:30:02;7.50;99.90
61912;DHT22;49973;52.084;5.412;2023-12-20T05:32:33;7.40;99.90
61912;DHT22;49973;52.084;5.412;2023-12-20T05:35:02;7.50;99.90
61912;DHT22;49973;52.084;5.412;2023-12-20T05:37:31;7.50;99.90
61912;DHT22;49973;52.084;5.412;2023-12-20T05:39:59;7.50;99.90
61912;DHT22;49973;52.084;5.412;2023-12-20T05:42:28;7.50;99.90
61912;DHT22;49973;52.084;5.412;2023-12-20T05:44:57;7.50;99.90
61912;DHT22;49973;52.084;5.412;2023-12-20T05:47:25;7.50;99.90
61912;DHT22;49973;52.084;5.412;2023-12-20T05:49:55;7.50;99.90
61912;DHT22;49973;52.084;5.412;2023-12-20T05:52:24;7.40;99.90
61912;DHT22;49973;52.084;5.412;2023-12-20T05:54:53;7.50;99.90
61912;DHT22;49973;52.084;5.412;2023-12-20T05:57:21;7.50;99.90
61912;DHT22;49973;52.084;5.412;2023-12-20T05:59:50;7.50;99.90
61912;DHT22;49973;52.084;5.412;2023-12-20T06:02:19;7.50;99.90
61912;DHT22;49973;52.084;5.412;2023-12-20T06:04:47;7.50;99.90
61912;DHT22;49973;52.084;5.412;2023-12-20T06:07:17;7.60;99.90
61912;DHT22;49973;52.084;5.412;2023-12-20T06:09:46;7.50;99.90
61912;DHT22;49973;52.084;5.412;2023-12-20T06:12:15;7.60;99.90
61912;DHT22;49973;52.084;5.412;2023-12-20T06:14:43;7.60;99.90
61912;DHT22;49973;52.084;5.412;2023-12-20T06:17:12;7.60;99.90
61912;DHT22;49973;52.084;5.412;2023-12-20T06:19:40;7.60;99.90
61912;DHT22;49973;52.084;5.412;2023-12-20T06:22:12;7.60;99.90
61912;DHT22;49973;52.084;5.412;2023-12-20T06:24:42;7.60;99.90
61912;DHT22;49973;52.084;5.412;2023-12-20T06:27:10;7.60;99.90
61912;DHT22;49973;52.084;5.412;2023-12-20T06:29:39;7.60;99.90
61912;DHT22;49973;52.084;5.412;2023-12-20T06:32:10;7.60;99.90
61912;DHT22;49973;52.084;5.412;2023-12-20T06:34:38;7.60;99.90
61912;DHT22;49973;52.084;5.412;2023-12-20T06:37:07;7.60;99.90
61912;DHT22;49973;52.084;5.412;2023-12-20T06:39:35;7.70;99.90
61912;DHT22;49973;52.084;5.412;2023-12-20T06:42:05;7.70;99.90
61912;DHT22;49973;52.084;5.412;2023-12-20T06:44:35;7.70;99.90
61912;DHT22;49973;52.084;5.412;2023-12-20T06:47:04;7.70;99.90
61912;DHT22;49973;52.084;5.412;2023-12-20T06:49:32;7.70;99.90
61912;DHT22;49973;52.084;5.412;2023-12-20T06:52:01;7.70;99.90
61912;DHT22;49973;52.084;5.412;2023-12-20T06:54:30;7.70;99.90
61912;DHT22;49973;52.084;5.412;2023-12-20T06:56:59;7.70;99.90
61912;DHT22;49973;52.084;5.412;2023-12-20T06:59:29;7.70;99.90
61912;DHT22;49973;52.084;5.412;2023-12-20T07:01:57;7.70;99.90
61912;DHT22;49973;52.084;5.412;2023-12-20T07:04:26;7.70;99.90
61912;DHT22;49973;52.084;5.412;2023-12-20T07:06:55;7.70;99.90
61912;DHT22;49973;52.084;5.412;2023-12-20T07:09:25;7.70;99.90
61912;DHT22;49973;52.084;5.412;2023-12-20T07:11:54;7.70;99.90
61912;DHT22;49973;52.084;5.412;2023-12-20T07:14:22;7.70;99.90
61912;DHT22;49973;52.084;5.412;2023-12-20T07:16:52;7.70;99.90
61912;DHT22;49973;52.084;5.412;2023-12-20T07:19:21;7.70;99.90
61912;DHT22;49973;52.084;5.412;2023-12-20T07:21:50;7.70;99.90
61912;DHT22;49973;52.084;5.412;2023-12-20T07:24:18;7.70;99.90
61912;DHT22;49973;52.084;5.412;2023-12-20T07:26:47;7.70;99.90
61912;DHT22;49973;52.084;5.412;2023-12-20T07:29:15;7.70;99.90
61912;DHT22;49973;52.084;5.412;2023-12-20T07:31:44;7.80;99.90
61912;DHT22;49973;52.084;5.412;2023-12-20T07:34:14;7.80;99.90
61912;DHT22;49973;52.084;5.412;2023-12-20T07:36:43;7.80;99.90
61912;DHT22;49973;52.084;5.412;2023-12-20T07:39:12;8.00;99.90
61912;DHT22;49973;52.084;5.412;2023-12-20T07:41:41;7.80;99.90
61912;DHT22;49973;52.084;5.412;2023-12-20T07:44:11;7.90;99.90
61912;DHT22;49973;52.084;5.412;2023-12-20T07:46:40;7.90;99.90
61912;DHT22;49973;52.084;5.412;2023-12-20T07:49:09;7.90;99.90
61912;DHT22;49973;52.084;5.412;2023-12-20T07:51:39;7.90;99.90
61912;DHT22;49973;52.084;5.412;2023-12-20T07:54:08;7.90;99.90
61912;DHT22;49973;52.084;5.412;2023-12-20T07:56:37;7.90;99.90
61912;DHT22;49973;52.084;5.412;2023-12-20T07:59:07;8.00;99.90
61912;DHT22;49973;52.084;5.412;2023-12-20T08:01:51;7.90;99.90
61912;DHT22;49973;52.084;5.412;2023-12-20T08:04:20;8.00;99.90
61912;DHT22;49973;52.084;5.412;2023-12-20T08:06:50;7.90;99.90
61912;DHT22;49973;52.084;5.412;2023-12-20T08:09:19;8.00;99.90
61912;DHT22;49973;52.084;5.412;2023-12-20T08:11:48;8.00;99.90
61912;DHT22;49973;52.084;5.412;2023-12-20T08:14:17;8.00;99.90
61912;DHT22;49973;52.084;5.412;2023-12-20T08:16:45;8.00;99.90
61912;DHT22;49973;52.084;5.412;2023-12-20T08:19:14;8.00;99.90
61912;DHT22;49973;52.084;5.412;2023-12-20T08:21:43;8.00;99.90
61912;DHT22;49973;52.084;5.412;2023-12-20T08:24:13;8.20;99.90
61912;DHT22;49973;52.084;5.412;2023-12-20T08:26:41;8.10;99.90
61912;DHT22;49973;52.084;5.412;2023-12-20T08:29:10;8.10;99.90
61912;DHT22;49973;52.084;5.412;2023-12-20T08:31:40;8.10;99.90
61912;DHT22;49973;52.084;5.412;2023-12-20T08:34:08;8.10;99.90
61912;DHT22;49973;52.084;5.412;2023-12-20T08:36:39;8.20;99.90
61912;DHT22;49973;52.084;5.412;2023-12-20T08:39:08;8.30;99.90
61912;DHT22;49973;52.084;5.412;2023-12-20T08:41:38;8.30;99.90
61912;DHT22;49973;52.084;5.412;2023-12-20T08:44:06;8.20;99.90
61912;DHT22;49973;52.084;5.412;2023-12-20T08:46:35;8.30;99.90
61912;DHT22;49973;52.084;5.412;2023-12-20T08:49:03;8.20;99.90
61912;DHT22;49973;52.084;5.412;2023-12-20T08:51:32;8.20;99.90
61912;DHT22;49973;52.084;5.412;2023-12-20T08:54:01;8.20;99.90
61912;DHT22;49973;52.084;5.412;2023-12-20T08:56:30;8.20;99.90
61912;DHT22;49973;52.084;5.412;2023-12-20T08:59:00;8.20;99.90
61912;DHT22;49973;52.084;5.412;2023-12-20T09:01:29;8.20;99.90
61912;DHT22;49973;52.084;5.412;2023-12-20T09:03:58;8.20;99.90
61912;DHT22;49973;52.084;5.412;2023-12-20T09:06:27;8.20;99.90
61912;DHT22;49973;52.084;5.412;2023-12-20T09:08:56;8.20;99.90
61912;DHT22;49973;52.084;5.412;2023-12-20T09:11:24;8.20;99.90
61912;DHT22;49973;52.084;5.412;2023-12-20T09:13:53;8.20;99.90
61912;DHT22;49973;52.084;5.412;2023-12-20T09:16:23;8.20;99.90
61912;DHT22;49973;52.084;5.412;2023-12-20T09:18:52;8.10;99.90
61912;DHT22;49973;52.084;5.412;2023-12-20T09:21:21;8.10;99.90
61912;DHT22;49973;52.084;5.412;2023-12-20T09:23:50;8.00;99.90
61912;DHT22;49973;52.084;5.412;2023-12-20T09:26:18;8.00;99.90
61912;DHT22;49973;52.084;5.412;2023-12-20T09:28:48;8.00;99.90
61912;DHT22;49973;52.084;5.412;2023-12-20T09:31:16;7.90;99.90
61912;DHT22;49973;52.084;5.412;2023-12-20T09:33:46;8.00;99.90
61912;DHT22;49973;52.084;5.412;2023-12-20T09:36:15;8.00;99.90
61912;DHT22;49973;52.084;5.412;2023-12-20T09:38:44;8.00;99.90
61912;DHT22;49973;52.084;5.412;2023-12-20T09:41:14;8.00;99.90
61912;DHT22;49973;52.084;5.412;2023-12-20T09:43:42;8.00;99.90
61912;DHT22;49973;52.084;5.412;2023-12-20T09:46:12;8.00;99.90
61912;DHT22;49973;52.084;5.412;2023-12-20T09:48:45;8.10;99.90
61912;DHT22;49973;52.084;5.412;2023-12-20T09:51:15;8.10;99.90
61912;DHT22;49973;52.084;5.412;2023-12-20T09:53:44;8.30;99.90
61912;DHT22;49973;52.084;5.412;2023-12-20T09:56:13;8.20;99.90
61912;DHT22;49973;52.084;5.412;2023-12-20T09:58:43;8.30;99.90
61912;DHT22;49973;52.084;5.412;2023-12-20T10:01:11;8.30;99.90
61912;DHT22;49973;52.084;5.412;2023-12-20T10:03:41;8.40;99.90
61912;DHT22;49973;52.084;5.412;2023-12-20T10:06:11;8.50;99.90
61912;DHT22;49973;52.084;5.412;2023-12-20T10:08:40;8.50;99.90
61912;DHT22;49973;52.084;5.412;2023-12-20T10:11:09;8.60;99.90
61912;DHT22;49973;52.084;5.412;2023-12-20T10:13:39;8.60;99.90
61912;DHT22;49973;52.084;5.412;2023-12-20T10:16:09;8.70;99.90
61912;DHT22;49973;52.084;5.412;2023-12-20T10:18:38;8.70;99.90
61912;DHT22;49973;52.084;5.412;2023-12-20T10:21:07;8.80;99.90
61912;DHT22;49973;52.084;5.412;2023-12-20T10:23:39;8.80;99.90
61912;DHT22;49973;52.084;5.412;2023-12-20T10:26:08;8.80;99.90
61912;DHT22;49973;52.084;5.412;2023-12-20T10:28:37;8.90;99.90
61912;DHT22;49973;52.084;5.412;2023-12-20T10:31:06;8.90;99.90
61912;DHT22;49973;52.084;5.412;2023-12-20T10:33:35;8.90;99.90
61912;DHT22;49973;52.084;5.412;2023-12-20T10:36:05;9.00;99.90
61912;DHT22;49973;52.084;5.412;2023-12-20T10:38:35;9.00;99.90
61912;DHT22;49973;52.084;5.412;2023-12-20T10:41:09;9.10;99.90
61912;DHT22;49973;52.084;5.412;2023-12-20T10:43:39;9.10;99.90
61912;DHT22;49973;52.084;5.412;2023-12-20T10:46:08;9.10;99.90
61912;DHT22;49973;52.084;5.412;2023-12-20T10:48:38;9.20;99.90
61912;DHT22;49973;52.084;5.412;2023-12-20T10:51:08;9.20;99.90
61912;DHT22;49973;52.084;5.412;2023-12-20T10:53:38;9.20;99.90
61912;DHT22;49973;52.084;5.412;2023-12-20T10:56:11;9.30;99.90
61912;DHT22;49973;52.084;5.412;2023-12-20T10:58:42;9.30;99.90
61912;DHT22;49973;52.084;5.412;2023-12-20T11:01:13;9.30;99.90
61912;DHT22;49973;52.084;5.412;2023-12-20T11:03:46;9.40;99.90
61912;DHT22;49973;52.084;5.412;2023-12-20T11:06:27;9.40;99.90
61912;DHT22;49973;52.084;5.412;2023-12-20T11:09:04;9.50;99.90
61912;DHT22;49973;52.084;5.412;2023-12-20T11:11:47;9.50;99.90
61912;DHT22;49973;52.084;5.412;2023-12-20T11:14:23;9.70;99.90
61912;DHT22;49973;52.084;5.412;2023-12-20T11:17:06;9.90;99.90
61912;DHT22;49973;52.084;5.412;2023-12-20T11:19:43;9.90;99.90
61912;DHT22;49973;52.084;5.412;2023-12-20T11:22:32;10.00;99.90
61912;DHT22;49973;52.084;5.412;2023-12-20T11:25:07;10.10;99.90
61912;DHT22;49973;52.084;5.412;2023-12-20T11:27:41;10.10;99.90
61912;DHT22;49973;52.084;5.412;2023-12-20T11:30:11;10.20;99.90
61912;DHT22;49973;52.084;5.412;2023-12-20T11:32:40;10.20;99.90
61912;DHT22;49973;52.084;5.412;2023-12-20T11:35:19;10.20;99.90
61912;DHT22;49973;52.084;5.412;2023-12-20T11:37:49;10.20;99.90
61912;DHT22;49973;52.084;5.412;2023-12-20T11:40:19;10.30;99.90
61912;DHT22;49973;52.084;5.412;2023-12-20T11:42:51;10.30;99.90
61912;DHT22;49973;52.084;5.412;2023-12-20T11:45:24;10.30;99.90
61912;DHT22;49973;52.084;5.412;2023-12-20T11:47:57;10.30;99.90
61912;DHT22;49973;52.084;5.412;2023-12-20T11:50:26;10.40;99.90
61912;DHT22;49973;52.084;5.412;2023-12-20T11:52:55;10.30;99.90
61912;DHT22;49973;52.084;5.412;2023-12-20T11:55:24;10.30;99.90
61912;DHT22;49973;52.084;5.412;2023-12-20T11:57:54;10.30;99.90
61912;DHT22;49973;52.084;5.412;2023-12-20T12:00:24;10.30;99.90
61912;DHT22;49973;52.084;5.412;2023-12-20T12:02:57;10.30;99.90
61912;DHT22;49973;52.084;5.412;2023-12-20T12:05:26;10.30;99.90
61912;DHT22;49973;52.084;5.412;2023-12-20T12:07:55;10.30;99.90
61912;DHT22;49973;52.084;5.412;2023-12-20T12:10:24;10.30;99.90
61912;DHT22;49973;52.084;5.412;2023-12-20T12:12:54;10.30;99.90
61912;DHT22;49973;52.084;5.412;2023-12-20T12:15:23;10.30;99.90
61912;DHT22;49973;52.084;5.412;2023-12-20T12:17:55;10.20;99.90
61912;DHT22;49973;52.084;5.412;2023-12-20T12:20:24;10.20;99.90
61912;DHT22;49973;52.084;5.412;2023-12-20T12:23:00;10.10;99.90
61912;DHT22;49973;52.084;5.412;2023-12-20T12:25:29;10.10;99.90
61912;DHT22;49973;52.084;5.412;2023-12-20T12:28:00;10.10;99.90
61912;DHT22;49973;52.084;5.412;2023-12-20T12:30:29;10.20;99.90
61912;DHT22;49973;52.084;5.412;2023-12-20T12:33:05;10.20;99.90
61912;DHT22;49973;52.084;5.412;2023-12-20T12:35:34;10.10;99.90
61912;DHT22;49973;52.084;5.412;2023-12-20T12:38:03;10.10;99.90
61912;DHT22;49973;52.084;5.412;2023-12-20T12:40:35;10.10;99.90
61912;DHT22;49973;52.084;5.412;2023-12-20T12:43:05;10.10;99.90
61912;DHT22;49973;52.084;5.412;2023-12-20T12:45:34;10.10;99.90
61912;DHT22;49973;52.084;5.412;2023-12-20T12:48:04;10.10;99.90
61912;DHT22;49973;52.084;5.412;2023-12-20T12:50:32;10.10;99.90
61912;DHT22;49973;52.084;5.412;2023-12-20T12:53:01;10.20;99.90
61912;DHT22;49973;52.084;5.412;2023-12-20T12:55:31;10.10;99.90
61912;DHT22;49973;52.084;5.412;2023-12-20T12:58:00;10.20;99.90
61912;DHT22;49973;52.084;5.412;2023-12-20T13:00:30;10.20;99.90
61912;DHT22;49973;52.084;5.412;2023-12-20T13:02:58;10.20;99.90
61912;DHT22;49973;52.084;5.412;2023-12-20T13:05:27;10.20;99.90
61912;DHT22;49973;52.084;5.412;2023-12-20T13:07:56;10.20;99.90
61912;DHT22;49973;52.084;5.412;2023-12-20T13:10:26;10.30;99.90
61912;DHT22;49973;52.084;5.412;2023-12-20T13:12:54;10.20;99.90
61912;DHT22;49973;52.084;5.412;2023-12-20T13:15:23;10.30;99.90
61912;DHT22;49973;52.084;5.412;2023-12-20T13:17:53;10.20;99.90
61912;DHT22;49973;52.084;5.412;2023-12-20T13:20:22;10.10;99.90
61912;DHT22;49973;52.084;5.412;2023-12-20T13:22:51;10.10;99.90
61912;DHT22;49973;52.084;5.412;2023-12-20T13:25:19;10.10;99.90
61912;DHT22;49973;52.084;5.412;2023-12-20T13:27:48;10.10;99.90
61912;DHT22;49973;52.084;5.412;2023-12-20T13:30:17;10.10;99.90
61912;DHT22;49973;52.084;5.412;2023-12-20T13:32:46;10.10;99.90
61912;DHT22;49973;52.084;5.412;2023-12-20T13:35:16;10.10;99.90
61912;DHT22;49973;52.084;5.412;2023-12-20T13:37:45;10.10;99.90
61912;DHT22;49973;52.084;5.412;2023-12-20T13:40:14;10.10;99.90
61912;DHT22;49973;52.084;5.412;2023-12-20T13:42:43;10.10;99.90
61912;DHT22;49973;52.084;5.412;2023-12-20T13:45:13;10.00;99.90
61912;DHT22;49973;52.084;5.412;2023-12-20T13:47:41;10.00;99.90
61912;DHT22;49973;52.084;5.412;2023-12-20T13:50:11;10.00;99.90
61912;DHT22;49973;52.084;5.412;2023-12-20T13:52:41;10.10;99.90
61912;DHT22;49973;52.084;5.412;2023-12-20T13:55:10;10.10;99.90
61912;DHT22;49973;52.084;5.412;2023-12-20T13:57:39;10.10;99.90
61912;DHT22;49973;52.084;5.412;2023-12-20T14:00:21;10.00;99.90
61912;DHT22;49973;52.084;5.412;2023-12-20T14:02:50;10.10;99.90
61912;DHT22;49973;52.084;5.412;2023-12-20T14:05:19;10.10;99.90
61912;DHT22;49973;52.084;5.412;2023-12-20T14:07:54;10.10;99.90
61912;DHT22;49973;52.084;5.412;2023-12-20T14:10:25;10.20;99.90
61912;DHT22;49973;52.084;5.412;2023-12-20T14:12:55;10.20;99.90
61912;DHT22;49973;52.084;5.412;2023-12-20T14:15:23;10.20;99.90
61912;DHT22;49973;52.084;5.412;2023-12-20T14:17:53;10.20;99.90
61912;DHT22;49973;52.084;5.412;2023-12-20T14:20:22;10.20;99.90
61912;DHT22;49973;52.084;5.412;2023-12-20T14:22:51;10.10;99.90
61912;DHT22;49973;52.084;5.412;2023-12-20T14:25:21;10.10;99.90
61912;DHT22;49973;52.084;5.412;2023-12-20T14:27:50;10.10;99.90
61912;DHT22;49973;52.084;5.412;2023-12-20T14:30:19;10.10;99.90
61912;DHT22;49973;52.084;5.412;2023-12-20T14:32:48;10.10;99.90
61912;DHT22;49973;52.084;5.412;2023-12-20T14:35:17;10.20;99.90
61912;DHT22;49973;52.084;5.412;2023-12-20T14:37:47;10.00;99.90
61912;DHT22;49973;52.084;5.412;2023-12-20T14:40:15;9.90;99.90
61912;DHT22;49973;52.084;5.412;2023-12-20T14:42:46;9.90;99.90
61912;DHT22;49973;52.084;5.412;2023-12-20T14:45:15;9.90;99.90
61912;DHT22;49973;52.084;5.412;2023-12-20T14:47:44;9.90;99.90
61912;DHT22;49973;52.084;5.412;2023-12-20T14:50:13;10.00;99.90
61912;DHT22;49973;52.084;5.412;2023-12-20T14:52:46;9.90;99.90
61912;DHT22;49973;52.084;5.412;2023-12-20T14:55:15;9.90;99.90
61912;DHT22;49973;52.084;5.412;2023-12-20T14:57:46;9.90;99.90
61912;DHT22;49973;52.084;5.412;2023-12-20T15:00:17;9.90;99.90
61912;DHT22;49973;52.084;5.412;2023-12-20T15:02:46;9.80;99.90
61912;DHT22;49973;52.084;5.412;2023-12-20T15:05:15;9.90;99.90
61912;DHT22;49973;52.084;5.412;2023-12-20T15:07:44;9.80;99.90
61912;DHT22;49973;52.084;5.412;2023-12-20T15:10:14;9.80;99.90
61912;DHT22;49973;52.084;5.412;2023-12-20T15:12:45;9.70;99.90
61912;DHT22;49973;52.084;5.412;2023-12-20T15:15:14;9.70;99.90
61912;DHT22;49973;52.084;5.412;2023-12-20T15:17:43;9.60;99.90
61912;DHT22;49973;52.084;5.412;2023-12-20T15:20:13;9.60;99.90
61912;DHT22;49973;52.084;5.412;2023-12-20T15:22:41;9.50;99.90
61912;DHT22;49973;52.084;5.412;2023-12-20T15:25:13;9.50;99.90
61912;DHT22;49973;52.084;5.412;2023-12-20T15:27:48;9.50;99.90
61912;DHT22;49973;52.084;5.412;2023-12-20T15:30:20;9.40;99.90
61912;DHT22;49973;52.084;5.412;2023-12-20T15:32:49;9.40;99.90
61912;DHT22;49973;52.084;5.412;2023-12-20T15:35:18;9.30;99.90
61912;DHT22;49973;52.084;5.412;2023-12-20T15:37:46;9.30;99.90
61912;DHT22;49973;52.084;5.412;2023-12-20T15:40:16;9.20;99.90
61912;DHT22;49973;52.084;5.412;2023-12-20T15:42:45;9.10;99.90
61912;DHT22;49973;52.084;5.412;2023-12-20T15:45:15;9.10;99.90
61912;DHT22;49973;52.084;5.412;2023-12-20T15:47:44;9.00;99.90
61912;DHT22;49973;52.084;5.412;2023-12-20T15:50:13;9.00;99.90
61912;DHT22;49973;52.084;5.412;2023-12-20T15:52:42;9.00;99.90
61912;DHT22;49973;52.084;5.412;2023-12-20T15:55:11;8.90;99.90
61912;DHT22;49973;52.084;5.412;2023-12-20T15:57:40;8.90;99.90